Terminal Aerodrome Forecast
Issued by NWS

Home | Current Version | Previous Version | Text Only | Print | Product List | Glossary On
Versions: 1 2 3 4 5 6 7 8 9 10 11 12
357
FTUS44 KEPZ 121129
TAFDMN
TAF
KDMN 121129Z 1212/1312 VRB05KT P6SM SKC
     FM121500 08005KT P6SM SKC
     FM130300 30005KT P6SM FEW250=

USA.gov is the U.S. government's official web portal to all federal, state and local government web resources and services.